createdAt,value
2023-08-16T00:00:29.073Z,97998.41
2023-08-16T00:02:57.538Z,98001.31
2023-08-16T00:05:27.102Z,98000.09
2023-08-16T00:07:55.061Z,98013.97
2023-08-16T00:10:23.182Z,98014.06
2023-08-16T00:12:51.237Z,98025.03
2023-08-16T00:15:19.445Z,98023.13
2023-08-16T00:17:49.016Z,98026.06
2023-08-16T00:20:18.440Z,98022.03
2023-08-16T00:22:47.887Z,98017.19
2023-08-16T00:25:15.873Z,98020.00
2023-08-16T00:27:43.986Z,98024.81
2023-08-16T00:30:13.106Z,98026.63
2023-08-16T00:32:42.574Z,98036.31
2023-08-16T00:35:10.773Z,98036.09
2023-08-16T00:37:38.830Z,98035.25
2023-08-16T00:40:10.172Z,98039.53
2023-08-16T00:42:38.139Z,98044.03
2023-08-16T00:45:07.311Z,98040.22
2023-08-16T00:47:35.512Z,98034.13
2023-08-16T00:50:03.660Z,98029.66
2023-08-16T00:52:32.062Z,98029.66
2023-08-16T00:55:00.464Z,98029.59
2023-08-16T00:57:29.855Z,98031.63
2023-08-16T00:59:57.983Z,98028.25
2023-08-16T01:02:26.007Z,98024.88
2023-08-16T01:04:54.009Z,98017.53
2023-08-16T01:07:22.316Z,98014.53
2023-08-16T01:09:50.656Z,98014.59
2023-08-16T01:12:21.589Z,98010.38
2023-08-16T01:14:52.795Z,98020.22
2023-08-16T01:17:21.540Z,98022.81
2023-08-16T01:19:49.762Z,98016.38
2023-08-16T01:22:21.350Z,98017.44
2023-08-16T01:24:56.833Z,98020.38
2023-08-16T01:27:26.214Z,98019.88
2023-08-16T01:29:54.930Z,98027.34
2023-08-16T01:32:23.635Z,98023.84
2023-08-16T01:34:51.611Z,98027.94
2023-08-16T01:37:19.694Z,98029.50
2023-08-16T01:39:51.036Z,98028.00
2023-08-16T01:42:19.382Z,98019.50
2023-08-16T01:44:48.888Z,98022.56
2023-08-16T01:47:16.840Z,98030.91
2023-08-16T01:49:44.846Z,98028.19
2023-08-16T01:52:12.966Z,98037.19
2023-08-16T01:54:40.979Z,98013.75
2023-08-16T01:57:08.968Z,98012.41
2023-08-16T01:59:37.081Z,98011.91
2023-08-16T02:02:06.640Z,98009.38
2023-08-16T02:04:34.700Z,98014.66
2023-08-16T02:07:02.812Z,98015.00
2023-08-16T02:09:30.791Z,98012.28
2023-08-16T02:11:58.814Z,98011.09
2023-08-16T02:14:28.097Z,98008.06
2023-08-16T02:16:56.114Z,98011.28
2023-08-16T02:19:25.653Z,98013.66
2023-08-16T02:21:53.768Z,98016.91
2023-08-16T02:24:21.815Z,98020.66
2023-08-16T02:26:49.813Z,98015.22
2023-08-16T02:29:17.917Z,98016.25
2023-08-16T02:31:46.011Z,98016.22
2023-08-16T02:34:14.071Z,98014.38
2023-08-16T02:36:43.497Z,98007.72
2023-08-16T02:39:11.601Z,98010.63
2023-08-16T02:41:40.060Z,98007.72
2023-08-16T02:44:08.317Z,97997.06
2023-08-16T02:46:36.379Z,98011.47
2023-08-16T02:49:04.446Z,98005.88
2023-08-16T02:51:32.464Z,98010.28
2023-08-16T02:54:01.869Z,98008.25
2023-08-16T02:56:29.830Z,98014.03
2023-08-16T02:58:57.871Z,98011.00
2023-08-16T03:01:25.921Z,98017.09
2023-08-16T03:03:53.974Z,98015.94
2023-08-16T03:06:21.972Z,98029.34
2023-08-16T03:08:49.948Z,98034.09
2023-08-16T03:11:19.355Z,98038.50
2023-08-16T03:13:47.566Z,98038.50
2023-08-16T03:16:15.676Z,98041.56
2023-08-16T03:18:43.742Z,98047.31
2023-08-16T03:21:11.760Z,98045.81
2023-08-16T03:23:39.833Z,98051.72
2023-08-16T03:26:07.805Z,98057.53
2023-08-16T03:28:37.205Z,98051.25
2023-08-16T03:31:09.022Z,98057.19
2023-08-16T03:33:37.057Z,98051.41
2023-08-16T03:36:05.599Z,98060.06
2023-08-16T03:38:33.711Z,98063.78
2023-08-16T03:41:01.736Z,98068.69
2023-08-16T03:43:32.494Z,98078.31
2023-08-16T03:46:01.929Z,98085.16
2023-08-16T03:48:30.003Z,98084.31
2023-08-16T03:50:57.996Z,98092.56
2023-08-16T03:53:26.027Z,98092.97
2023-08-16T03:55:57.317Z,98103.97
2023-08-16T03:58:25.366Z,98112.28
2023-08-16T04:00:53.661Z,98113.31
2023-08-16T04:03:23.199Z,98117.88
2023-08-16T04:05:51.263Z,98118.25
2023-08-16T04:08:19.394Z,98127.56
2023-08-16T04:10:47.441Z,98130.28
2023-08-16T04:13:15.456Z,98133.66
2023-08-16T04:15:44.186Z,98138.75
2023-08-16T04:18:12.187Z,98136.03
2023-08-16T04:20:41.621Z,98139.59
2023-08-16T04:23:09.725Z,98149.81
2023-08-16T04:25:37.773Z,98161.13
2023-08-16T04:28:06.364Z,98164.03
2023-08-16T04:30:34.887Z,98160.81
2023-08-16T04:33:03.156Z,98157.56
2023-08-16T04:35:31.307Z,98155.03
2023-08-16T04:38:00.682Z,98158.44
2023-08-16T04:40:28.684Z,98163.22
2023-08-16T04:42:56.769Z,98162.69
2023-08-16T04:45:24.813Z,98172.22
2023-08-16T04:47:52.823Z,98170.19
2023-08-16T04:50:20.881Z,98167.66
2023-08-16T04:52:49.003Z,98149.81
2023-08-16T04:55:18.692Z,98158.13
2023-08-16T04:57:46.682Z,98156.78
2023-08-16T05:00:15.308Z,98153.53
2023-08-16T05:02:43.303Z,98147.09
2023-08-16T05:05:11.357Z,98149.81
2023-08-16T05:07:39.523Z,98138.25
2023-08-16T05:10:08.301Z,98142.16
2023-08-16T05:12:37.634Z,98129.59
2023-08-16T05:15:06.396Z,98134.19
2023-08-16T05:17:47.858Z,98142.00
2023-08-16T05:20:34.737Z,98134.53
2023-08-16T05:23:02.753Z,98136.03
2023-08-16T05:25:30.966Z,98135.53
2023-08-16T05:28:00.735Z,98131.31
2023-08-16T05:30:28.812Z,98133.84
2023-08-16T05:32:56.986Z,98127.06
2023-08-16T05:35:25.189Z,98122.47
2023-08-16T05:37:53.429Z,98121.28
2023-08-16T05:40:22.064Z,98122.47
2023-08-16T05:42:50.022Z,98115.47
2023-08-16T05:45:22.456Z,98109.38
2023-08-16T05:47:50.583Z,98113.28
2023-08-16T05:50:18.830Z,98117.88
2023-08-16T05:52:46.965Z,98114.97
2023-08-16T05:55:16.610Z,98111.09
2023-08-16T05:57:46.247Z,98111.19
2023-08-16T06:00:15.328Z,98120.19
2023-08-16T06:02:44.709Z,98117.44
2023-08-16T06:05:12.710Z,98108.78
2023-08-16T06:07:40.743Z,98118.34
2023-08-16T06:10:09.678Z,98128.06
2023-08-16T06:12:38.597Z,98130.41
2023-08-16T06:15:12.698Z,98127.06
2023-08-16T06:17:40.847Z,98134.53
2023-08-16T06:20:11.079Z,98148.97
2023-08-16T06:22:42.100Z,98151.84
2023-08-16T06:25:10.529Z,98153.91
2023-08-16T06:27:38.568Z,98156.75
2023-08-16T06:30:08.470Z,98156.94
2023-08-16T06:32:37.162Z,98153.41
2023-08-16T06:35:09.998Z,98148.59
2023-08-16T06:37:40.311Z,98165.44
2023-08-16T06:40:10.629Z,98155.06
2023-08-16T06:42:38.911Z,98154.75
2023-08-16T06:45:07.915Z,98158.13
2023-08-16T06:47:35.968Z,98158.78
2023-08-16T06:50:05.761Z,98163.41
2023-08-16T06:52:33.868Z,98159.94
2023-08-16T06:55:03.527Z,98166.59
2023-08-16T06:57:31.621Z,98172.88
2023-08-16T06:59:59.769Z,98178.28
2023-08-16T07:02:30.781Z,98178.06
2023-08-16T07:04:59.526Z,98181.97
2023-08-16T07:07:27.604Z,98166.81
2023-08-16T07:09:57.498Z,98164.09
2023-08-16T07:12:29.346Z,98155.09
2023-08-16T07:14:57.480Z,98155.94
2023-08-16T07:17:25.540Z,98158.00
2023-08-16T07:19:53.719Z,98142.13
2023-08-16T07:22:26.144Z,98141.06
2023-08-16T07:24:54.403Z,98124.44
2023-08-16T07:27:22.530Z,98133.97
2023-08-16T07:29:52.128Z,98143.97
2023-08-16T07:32:20.141Z,98157.53
2023-08-16T07:34:48.208Z,98157.53
2023-08-16T07:37:16.829Z,98160.34
2023-08-16T07:39:44.922Z,98154.13
2023-08-16T07:42:13.078Z,98158.03
2023-08-16T07:44:41.061Z,98152.31
2023-08-16T07:47:12.318Z,98165.34
2023-08-16T07:49:45.837Z,98164.28
2023-08-16T07:52:19.241Z,98166.97
2023-08-16T07:54:48.044Z,98163.94
2023-08-16T07:57:16.056Z,98161.72
2023-08-16T07:59:44.150Z,98159.06
2023-08-16T08:02:13.586Z,98149.13
2023-08-16T08:04:41.646Z,98159.28
2023-08-16T08:07:13.978Z,98173.47
2023-08-16T08:09:45.935Z,98163.41
2023-08-16T08:12:14.298Z,98158.59
2023-08-16T08:14:42.297Z,98143.28
2023-08-16T08:17:10.298Z,98129.56
2023-08-16T08:19:39.681Z,98123.41
2023-08-16T08:22:07.651Z,98118.94
2023-08-16T08:24:35.923Z,98118.19
2023-08-16T08:27:04.279Z,98116.59
2023-08-16T08:29:32.400Z,98105.38
2023-08-16T08:32:00.505Z,98103.66
2023-08-16T08:34:28.782Z,98113.91
2023-08-16T08:36:59.139Z,98111.53
2023-08-16T08:39:29.972Z,98118.44
2023-08-16T08:41:58.195Z,98105.06
2023-08-16T08:44:26.240Z,98101.31
2023-08-16T08:47:02.948Z,98101.31
2023-08-16T08:49:35.299Z,98096.13
2023-08-16T08:52:06.099Z,98097.66
2023-08-16T08:54:34.292Z,98106.56
2023-08-16T08:57:06.008Z,98112.59
2023-08-16T08:59:41.587Z,98112.84
2023-08-16T09:02:09.940Z,98116.56
2023-08-16T09:04:37.972Z,98117.13
2023-08-16T09:07:07.521Z,98114.66
2023-08-16T09:09:35.542Z,98114.69
2023-08-16T09:12:03.851Z,98120.03
2023-08-16T09:14:32.304Z,98115.53
2023-08-16T09:17:00.513Z,98110.00
2023-08-16T09:19:28.600Z,98101.63
2023-08-16T09:21:58.742Z,98097.50
2023-08-16T09:24:29.290Z,98087.34
2023-08-16T09:27:01.483Z,98088.69
2023-08-16T09:29:31.637Z,98091.09
2023-08-16T09:31:59.977Z,98090.25
2023-08-16T09:36:59.024Z,98090.53
2023-08-16T09:39:29.114Z,98094.09
2023-08-16T09:41:57.211Z,98097.75
2023-08-16T09:44:29.811Z,98108.34
2023-08-16T09:49:29.850Z,98106.41
2023-08-16T09:54:31.019Z,98093.41
2023-08-16T10:09:36.579Z,98077.28
2023-08-16T10:12:05.519Z,98081.34
2023-08-16T10:14:33.614Z,98074.97
2023-08-16T10:17:03.725Z,98062.16
2023-08-16T10:19:32.485Z,98075.28
2023-08-16T10:22:00.546Z,98070.81
2023-08-16T10:27:02.470Z,98066.81
2023-08-16T10:29:30.492Z,98070.03
2023-08-16T10:31:58.869Z,98070.44
2023-08-16T10:34:27.883Z,98066.13
2023-08-16T10:36:55.888Z,98059.72
2023-08-16T10:39:24.292Z,98060.50
2023-08-16T10:41:52.537Z,98054.72
2023-08-16T10:44:25.321Z,98050.53
2023-08-16T10:46:53.490Z,98048.31
2023-08-16T10:49:22.114Z,98037.22
2023-08-16T10:51:52.264Z,98030.00
2023-08-16T10:54:20.442Z,98013.56
2023-08-16T10:56:49.868Z,98015.66
2023-08-16T10:59:17.986Z,98021.72
2023-08-16T11:01:48.250Z,98025.22
2023-08-16T11:04:16.379Z,98018.75
2023-08-16T11:06:55.801Z,98027.34
2023-08-16T11:09:30.885Z,98023.47
2023-08-16T11:12:03.002Z,98035.47
2023-08-16T11:14:31.108Z,98028.38
2023-08-16T11:17:00.469Z,98024.44
2023-08-16T11:19:28.620Z,98012.31
2023-08-16T11:21:58.423Z,98018.03
2023-08-16T11:24:26.450Z,98016.13
2023-08-16T11:26:54.945Z,98007.84
2023-08-16T11:29:22.913Z,98001.88
2023-08-16T11:31:51.521Z,98002.00
2023-08-16T11:34:20.956Z,98015.09
2023-08-16T11:36:49.369Z,98013.03
2023-08-16T11:39:17.384Z,98021.13
2023-08-16T11:41:45.386Z,98020.84
2023-08-16T11:44:13.538Z,98010.47
2023-08-16T11:46:42.253Z,98019.09
2023-08-16T11:49:10.670Z,98016.22
2023-08-16T11:51:41.919Z,98027.13
2023-08-16T11:54:10.462Z,98018.56
2023-08-16T11:56:41.815Z,98027.38
2023-08-16T11:59:09.953Z,98029.41
2023-08-16T12:01:40.267Z,98037.44
2023-08-16T12:04:09.513Z,98033.81
2023-08-16T12:06:47.484Z,98022.06
2023-08-16T12:09:18.026Z,98028.31
2023-08-16T12:11:46.162Z,98036.16
2023-08-16T12:14:14.193Z,98027.84
2023-08-16T12:16:42.157Z,98021.69
2023-08-16T12:19:11.013Z,98016.38
2023-08-16T12:21:42.546Z,98009.34
2023-08-16T12:24:12.207Z,98003.63
2023-08-16T12:26:40.226Z,98005.97
2023-08-16T12:29:08.216Z,98010.91
2023-08-16T12:31:36.274Z,97997.47
2023-08-16T12:34:04.303Z,97996.72
2023-08-16T12:36:32.386Z,97998.06
2023-08-16T12:39:00.418Z,97982.09
2023-08-16T12:41:30.074Z,97987.09
2023-08-16T12:43:58.058Z,97979.38
2023-08-16T12:46:26.036Z,97978.22
2023-08-16T12:48:55.195Z,97966.44
2023-08-16T12:51:23.767Z,97979.47
2023-08-16T12:53:52.360Z,97997.94
2023-08-16T12:56:21.220Z,97982.75
2023-08-16T13:01:22.567Z,97969.16
2023-08-16T13:09:02.406Z,97968.19
2023-08-16T13:11:35.123Z,97961.97
2023-08-16T13:14:08.704Z,97981.53
2023-08-16T13:16:45.327Z,97974.44
2023-08-16T13:21:54.137Z,97962.25
2023-08-16T13:24:38.176Z,97959.91
2023-08-16T13:27:17.637Z,97964.75
2023-08-16T13:37:25.470Z,97952.34
2023-08-16T13:47:31.413Z,97953.16
2023-08-16T13:49:59.415Z,97947.94
2023-08-16T13:52:27.615Z,97952.56
2023-08-16T13:54:55.928Z,97944.53
2023-08-16T13:57:24.125Z,97945.41
2023-08-16T13:59:52.235Z,97950.44
2023-08-16T14:02:21.777Z,97947.69
2023-08-16T14:04:49.813Z,97946.03
2023-08-16T14:07:17.801Z,97949.38
2023-08-16T14:09:45.796Z,97949.16
2023-08-16T14:12:13.838Z,97948.09
2023-08-16T14:14:41.868Z,97942.22
2023-08-16T14:17:09.935Z,97939.69
2023-08-16T14:19:39.420Z,97939.69
2023-08-16T14:22:07.510Z,97932.53
2023-08-16T14:24:35.611Z,97925.56
2023-08-16T14:27:06.271Z,97919.88
2023-08-16T14:29:36.663Z,97923.06
2023-08-16T14:32:05.236Z,97924.75
2023-08-16T14:34:34.131Z,97919.47
2023-08-16T14:37:03.535Z,97923.69
2023-08-16T14:39:31.708Z,97929.16
2023-08-16T14:41:59.769Z,97949.38
2023-08-16T14:44:29.770Z,97930.84
2023-08-16T14:47:02.171Z,97933.59
2023-08-16T14:49:35.296Z,97921.38
2023-08-16T14:52:07.223Z,97928.94
2023-08-16T14:54:35.495Z,97932.53
2023-08-16T14:57:03.508Z,97921.97
2023-08-16T14:59:31.640Z,97923.06
2023-08-16T15:01:59.723Z,97936.75
2023-08-16T15:04:27.742Z,97934.63
2023-08-16T15:06:55.707Z,97939.69
2023-08-16T15:09:26.420Z,97946.03
2023-08-16T15:11:54.430Z,97938.00
2023-08-16T15:14:22.457Z,97929.19
2023-08-16T15:16:51.789Z,97928.31
2023-08-16T15:19:21.935Z,97939.69
2023-08-16T15:21:49.993Z,97935.88
2023-08-16T15:24:18.134Z,97940.97
2023-08-16T15:26:47.651Z,97934.44
2023-08-16T15:29:15.663Z,97925.56
2023-08-16T15:31:43.691Z,97924.09
2023-08-16T15:34:12.047Z,97935.25
2023-08-16T15:36:40.332Z,97938.84
2023-08-16T15:39:08.549Z,97937.56
2023-08-16T15:41:36.506Z,97930.41
2023-08-16T15:44:06.218Z,97930.88
2023-08-16T15:46:34.348Z,97926.63
2023-08-16T15:49:02.394Z,97916.50
2023-08-16T15:51:30.398Z,97912.50
2023-08-16T15:53:58.435Z,97924.50
2023-08-16T15:56:31.404Z,97918.19
2023-08-16T15:59:04.572Z,97918.19
2023-08-16T16:01:34.823Z,97919.00
2023-08-16T16:04:02.860Z,97924.41
2023-08-16T16:06:31.157Z,97916.59
2023-08-16T16:08:59.103Z,97918.03
2023-08-16T16:11:29.488Z,97912.78
2023-08-16T16:14:01.536Z,97912.44
2023-08-16T16:16:29.616Z,97909.56
2023-08-16T16:18:59.084Z,97899.00
2023-08-16T16:21:27.882Z,97896.84
2023-08-16T16:23:55.950Z,97900.00
2023-08-16T16:26:23.913Z,97899.84
2023-08-16T16:28:52.016Z,97891.38
2023-08-16T16:31:21.633Z,97901.69
2023-08-16T16:33:51.680Z,97893.66
2023-08-16T16:36:29.680Z,97887.28
2023-08-16T16:38:57.822Z,97886.25
2023-08-16T16:41:25.782Z,97878.50
2023-08-16T16:43:53.777Z,97877.50
2023-08-16T16:46:22.058Z,97877.06
2023-08-16T16:48:51.005Z,97875.44
2023-08-16T16:51:19.133Z,97890.09
2023-08-16T16:53:48.591Z,97888.06
2023-08-16T16:56:19.753Z,97902.66
2023-08-16T16:58:48.077Z,97900.75
2023-08-16T17:01:16.102Z,97898.94
2023-08-16T17:03:44.108Z,97907.78
2023-08-16T17:06:12.240Z,97915.06
2023-08-16T17:08:41.315Z,97904.81
2023-08-16T17:11:10.733Z,97906.88
2023-08-16T17:13:40.659Z,97917.56
2023-08-16T17:16:14.765Z,97925.72
2023-08-16T17:18:42.817Z,97925.19
2023-08-16T17:21:15.921Z,97922.97
2023-08-16T17:23:44.179Z,97920.94
2023-08-16T17:26:13.705Z,97921.63
2023-08-16T17:28:41.886Z,97928.06
2023-08-16T17:31:12.176Z,97937.25
2023-08-16T17:33:40.267Z,97933.66
2023-08-16T17:36:13.324Z,97937.28
2023-08-16T17:38:44.150Z,97927.59
2023-08-16T17:41:17.223Z,97919.31
2023-08-16T17:43:45.709Z,97929.63
2023-08-16T17:46:13.715Z,97932.91
2023-08-16T17:48:42.427Z,97938.91
2023-08-16T17:51:10.424Z,97949.41
2023-08-16T17:53:38.439Z,97944.06
2023-08-16T17:56:06.798Z,97933.25
2023-08-16T17:58:36.582Z,97924.59
2023-08-16T18:01:06.436Z,97920.34
2023-08-16T18:03:34.745Z,97928.81
2023-08-16T18:06:04.151Z,97929.84
2023-08-16T18:08:32.232Z,97932.72
2023-08-16T18:11:00.273Z,97931.59
2023-08-16T18:13:28.234Z,97936.94
2023-08-16T18:15:57.627Z,97943.38
2023-08-16T18:18:27.070Z,97945.25
2023-08-16T18:20:55.568Z,97931.78
2023-08-16T18:23:23.740Z,97942.44
2023-08-16T18:25:51.936Z,97949.09
2023-08-16T18:28:20.770Z,97956.84
2023-08-16T18:30:50.124Z,97958.38
2023-08-16T18:33:22.655Z,97964.84
2023-08-16T18:35:50.640Z,97957.88
2023-08-16T18:38:18.744Z,97972.47
2023-08-16T18:40:46.778Z,97969.84
2023-08-16T18:43:14.870Z,97985.06
2023-08-16T18:45:46.777Z,97974.75
2023-08-16T18:48:15.000Z,97984.41
2023-08-16T18:50:45.961Z,97985.00
2023-08-16T18:53:13.920Z,97987.72
2023-08-16T18:55:42.856Z,97991.66
2023-08-16T18:58:31.838Z,97986.28
2023-08-16T19:01:01.530Z,97982.81
2023-08-16T19:03:29.565Z,97979.53
2023-08-16T19:05:59.165Z,97988.09
2023-08-16T19:08:27.203Z,97990.06
2023-08-16T19:10:55.153Z,97988.66
2023-08-16T19:13:24.330Z,97993.06
2023-08-16T19:15:52.837Z,97989.22
2023-08-16T19:18:20.771Z,97978.03
2023-08-16T19:20:48.987Z,97972.88
2023-08-16T19:23:18.455Z,97978.97
2023-08-16T19:25:46.440Z,97977.63
2023-08-16T19:28:14.496Z,97981.50
2023-08-16T19:30:43.023Z,97975.06
2023-08-16T19:33:11.089Z,97965.03
2023-08-16T19:35:39.253Z,97964.84
2023-08-16T19:38:07.318Z,97953.19
2023-08-16T19:40:36.712Z,97954.13
2023-08-16T19:43:07.145Z,97946.81
2023-08-16T19:45:38.805Z,97942.09
2023-08-16T19:48:07.597Z,97953.56
2023-08-16T19:50:35.807Z,97959.44
2023-08-16T19:53:03.829Z,97955.06
2023-08-16T19:55:31.809Z,97965.56
2023-08-16T19:58:01.233Z,97964.44
2023-08-16T20:00:30.770Z,97964.03
2023-08-16T20:02:59.005Z,97961.13
2023-08-16T20:05:27.098Z,97964.88
2023-08-16T20:07:55.214Z,97954.34
2023-08-16T20:10:23.288Z,97957.66
2023-08-16T20:12:51.356Z,97968.91
2023-08-16T20:15:21.036Z,97972.47
2023-08-16T20:17:49.162Z,97971.41
2023-08-16T20:20:17.498Z,97969.81
2023-08-16T20:22:47.279Z,97965.00
2023-08-16T20:25:17.454Z,97953.03
2023-08-16T20:27:45.439Z,97960.81
2023-08-16T20:30:14.300Z,97955.94
2023-08-16T20:32:43.710Z,97961.81
2023-08-16T20:35:11.775Z,97963.56
2023-08-16T20:37:40.859Z,97959.06
2023-08-16T20:40:10.054Z,97955.44
2023-08-16T20:42:39.326Z,97956.84
2023-08-16T20:45:08.927Z,97951.94
2023-08-16T20:47:37.302Z,97956.47
2023-08-16T20:50:07.600Z,97954.91
2023-08-16T20:52:39.554Z,97968.25
2023-08-16T20:55:10.956Z,97958.06
2023-08-16T20:57:39.051Z,97964.13
2023-08-16T21:00:08.306Z,97973.81
2023-08-16T21:02:36.397Z,97967.16
2023-08-16T21:05:04.575Z,97973.06
2023-08-16T21:07:34.075Z,97971.75
2023-08-16T21:10:02.084Z,97973.22
2023-08-16T21:12:30.106Z,97957.94
2023-08-16T21:14:58.056Z,97964.75
2023-08-16T21:17:26.292Z,97953.75
2023-08-16T21:19:54.690Z,97954.38
2023-08-16T21:22:22.716Z,97953.88
2023-08-16T21:24:53.311Z,97952.88
2023-08-16T21:27:21.365Z,97949.69
2023-08-16T21:29:49.387Z,97948.94
2023-08-16T21:32:17.522Z,97952.75
2023-08-16T21:34:45.632Z,97947.13
2023-08-16T21:37:13.718Z,97946.53
2023-08-16T21:39:41.720Z,97949.63
2023-08-16T21:42:11.089Z,97954.50
2023-08-16T21:44:39.108Z,97956.75
2023-08-16T21:47:07.123Z,97949.13
2023-08-16T21:49:35.167Z,97953.00
2023-08-16T21:52:03.190Z,97945.13
2023-08-16T21:54:31.220Z,97948.50
2023-08-16T21:56:59.246Z,97958.28
2023-08-16T21:59:28.629Z,97961.13
2023-08-16T22:01:56.653Z,97955.59
2023-08-16T22:04:24.734Z,97969.84
2023-08-16T22:06:52.711Z,97962.44
2023-08-16T22:09:20.753Z,97965.94
2023-08-16T22:11:48.957Z,97973.53
2023-08-16T22:14:17.138Z,97966.06
2023-08-16T22:16:46.576Z,97967.88
2023-08-16T22:19:14.756Z,97965.16
2023-08-16T22:21:42.725Z,97963.63
2023-08-16T22:24:12.116Z,97968.41
2023-08-16T22:26:40.405Z,97971.97
2023-08-16T22:29:08.498Z,97970.13
2023-08-16T22:31:36.576Z,97974.56
2023-08-16T22:34:06.167Z,97970.13
2023-08-16T22:36:38.797Z,97969.47
2023-08-16T22:39:07.886Z,97961.34
2023-08-16T22:41:38.708Z,97970.84
2023-08-16T22:44:11.317Z,97979.00
2023-08-16T22:46:39.525Z,97972.84
2023-08-16T22:49:11.021Z,97967.22
2023-08-16T22:51:43.876Z,97963.66
2023-08-16T22:54:12.138Z,97967.28
2023-08-16T22:56:40.128Z,97958.97
2023-08-16T22:59:08.181Z,97948.97
2023-08-16T23:01:36.153Z,97954.75
2023-08-16T23:04:04.508Z,97944.72
2023-08-16T23:06:35.530Z,97947.41
2023-08-16T23:09:03.633Z,97956.28
2023-08-16T23:11:31.688Z,97952.69
2023-08-16T23:13:59.740Z,97957.94
2023-08-16T23:16:27.824Z,97963.88
2023-08-16T23:18:55.821Z,97959.81
2023-08-16T23:21:24.047Z,97958.44
2023-08-16T23:23:53.497Z,97978.16
2023-08-16T23:26:21.509Z,97981.19
2023-08-16T23:28:49.572Z,97996.91
2023-08-16T23:31:17.632Z,98009.47
2023-08-16T23:33:45.665Z,98018.28
2023-08-16T23:36:13.621Z,98025.75
2023-08-16T23:38:41.696Z,98014.28
2023-08-16T23:41:11.515Z,98030.53
2023-08-16T23:43:39.504Z,98029.38
2023-08-16T23:46:07.874Z,98035.31
2023-08-16T23:48:35.992Z,98042.25
2023-08-16T23:51:04.180Z,98030.72
2023-08-16T23:53:32.162Z,98030.72
2023-08-16T23:56:00.253Z,98033.22
2023-08-16T23:58:30.536Z,98036.13
